| time (UTC) | temp C | wind direction | speed KPH | gust KPH | rain 1hr cm | rain 24hr cm | rain mn cm | humidity % | barometer mb |
| 20260905195407 | 15 | 294 | 14.5 | 14.5 | 0.00 | 0.00 | 0.00 | 64 | 1022.0 |
| 20260905195205 | 15 | 294 | 12.9 | 12.9 | 0.00 | 0.00 | 0.00 | 64 | 1022.0 |
| 20260905195011 | 15 | 294 | 12.9 | 12.9 | 0.00 | 0.00 | 0.00 | 64 | 1021.0 |
| 20260905194606 | 15 | 294 | 14.5 | 14.5 | 0.00 | 0.00 | 0.00 | 64 | 1021.0 |
| 20260905194405 | 15 | 294 | 14.5 | 14.5 | 0.00 | 0.00 | 0.00 | 64 | 1021.0 |
| 20260905194206 | 15 | 294 | 12.9 | 12.9 | 0.00 | 0.00 | 0.00 | 63 | 1021.0 |
| 20260905194011 | 15 | 298 | 14.5 | 14.5 | 0.00 | 0.00 | 0.00 | 62 | 1021.0 |
| 20260905193807 | 15 | 300 | 12.9 | 12.9 | 0.00 | 0.00 | 0.00 | 62 | 1021.0 |
| 20260905193606 | 16 | 300 | 14.5 | 14.5 | 0.00 | 0.00 | 0.00 | 62 | 1021.0 |
| 20260905193404 | 16 | 300 | 14.5 | 14.5 | 0.00 | 0.00 | 0.00 | 62 | 1021.0 |
| 20260905193206 | 16 | 300 | 14.5 | 14.5 | 0.00 | 0.00 | 0.00 | 61 | 1021.0 |
| 20260905193014 | 16 | 294 | 14.5 | 14.5 | 0.00 | 0.00 | 0.00 | 61 | 1021.0 |
| 20260905192807 | 16 | 290 | 24.1 | 24.1 | 0.00 | 0.00 | 0.00 | 61 | 1021.0 |
| 20260905192606 | 16 | 300 | 14.5 | 14.5 | 0.00 | 0.00 | 0.00 | 62 | 1021.0 |
| 20260905192405 | 16 | 297 | 14.5 | 14.5 | 0.00 | 0.00 | 0.00 | 62 | 1021.0 |
| 20260905192207 | 16 | 294 | 25.7 | 27.4 | 0.00 | 0.00 | 0.00 | 62 | 1021.0 |
| 20260905192008 | 16 | 294 | 25.7 | 27.4 | 0.00 | 0.00 | 0.00 | 63 | 1021.0 |
| 20260905191806 | 16 | 282 | 14.5 | 14.5 | 0.00 | 0.00 | 0.00 | 63 | 1021.0 |
| 20260905191607 | 16 | 298 | 14.5 | 14.5 | 0.00 | 0.00 | 0.00 | 64 | 1021.0 |
| 20260905191406 | 16 | 300 | 14.5 | 14.5 | 0.00 | 0.00 | 0.00 | 64 | 1021.0 |
| 20260905191207 | 17 | 300 | 25.7 | 29.0 | 0.00 | 0.00 | 0.00 | 63 | 1021.0 |
| 20260905191009 | 17 | 288 | 29.0 | 30.6 | 0.00 | 0.00 | 0.00 | 62 | 1021.0 |
| 20260905190904 | 17 | 287 | 35.4 | 38.6 | 0.00 | 0.00 | 0.00 | 63 | 1021.0 |
| 20260905190807 | 17 | 285 | 29.0 | 30.6 | 0.00 | 0.00 | 0.00 | 63 | 1021.0 |
| 20260905190606 | 17 | 300 | 27.4 | 29.0 | 0.00 | 0.00 | 0.00 | 62 | 1021.0 |
| 20260905190405 | 17 | 288 | 33.8 | 35.4 | 0.00 | 0.00 | 0.00 | 62 | 1021.0 |
| 20260905190206 | 17 | 291 | 35.4 | 38.6 | 0.00 | 0.00 | 0.00 | 62 | 1021.0 |
| 20260905190018 | 17 | 288 | 24.1 | 27.4 | 0.00 | 0.00 | 0.00 | 62 | 1021.0 |
| 20260905185805 | 17 | 279 | 29.0 | 30.6 | 0.00 | 0.00 | 0.00 | 61 | 1021.0 |
| 20260905185606 | 17 | 294 | 14.5 | 14.5 | 0.00 | 0.00 | 0.00 | 61 | 1021.0 |
| 20260905185405 | 17 | 253 | 24.1 | 24.1 | 0.00 | 0.00 | 0.00 | 60 | 1020.0 |
| 20260905185207 | 17 | 258 | 29.0 | 30.6 | 0.00 | 0.00 | 0.00 | 60 | 1020.0 |
| 20260905185010 | 17 | 264 | 25.7 | 27.4 | 0.00 | 0.00 | 0.00 | 60 | 1020.0 |
| 20260905184806 | 17 | 270 | 12.9 | 12.9 | 0.00 | 0.00 | 0.00 | 60 | 1020.0 |
| 20260905184606 | 17 | 210 | 22.5 | 22.5 | 0.00 | 0.00 | 0.00 | 60 | 1020.0 |
| 20260905184204 | 17 | 264 | 12.9 | 12.9 | 0.00 | 0.00 | 0.00 | 60 | 1020.0 |
| 20260905183606 | 17 | 252 | 14.5 | 14.5 | 0.00 | 0.00 | 0.00 | 60 | 1020.0 |
| 20260905183405 | 17 | 252 | 12.9 | 12.9 | 0.00 | 0.00 | 0.00 | 60 | 1020.0 |
| 20260905183207 | 17 | 270 | 9.7 | 9.7 | 0.00 | 0.00 | 0.00 | 59 | 1020.0 |
| 20260905183014 | 17 | 236 | 12.9 | 12.9 | 0.00 | 0.00 | 0.00 | 59 | 1020.0 |
| 20260905182406 | 17 | 264 | 22.5 | 22.5 | 0.00 | 0.00 | 0.00 | 58 | 1020.0 |
| 20260905182207 | 17 | 252 | 12.9 | 12.9 | 0.00 | 0.00 | 0.00 | 59 | 1020.0 |
| 20260905182011 | 17 | 269 | 14.5 | 14.5 | 0.00 | 0.00 | 0.00 | 59 | 1020.0 |
| 20260905181807 | 17 | 204 | 25.7 | 27.4 | 0.00 | 0.00 | 0.00 | 58 | 1020.0 |
| 20260905181609 | 17 | 264 | 11.3 | 11.3 | 0.00 | 0.00 | 0.00 | 59 | 1020.0 |
| 20260905181205 | 17 | 267 | 14.5 | 14.5 | 0.00 | 0.00 | 0.00 | 59 | 1020.0 |
| 20260905180805 | 17 | 282 | 12.9 | 12.9 | 0.00 | 0.00 | 0.00 | 60 | 1020.0 |
| 20260905180605 | 17 | 282 | 12.9 | 12.9 | 0.00 | 0.00 | 0.00 | 59 | 1020.0 |
| 20260905180404 | 17 | 282 | 8.0 | 8.0 | 0.00 | 0.00 | 0.00 | 59 | 1020.0 |
| 20260905180205 | 17 | 288 | 9.7 | 9.7 | 0.00 | 0.00 | 0.00 | 59 | 1020.0 |
| 20260905175806 | 17 | 288 | 14.5 | 14.5 | 0.00 | 0.00 | 0.00 | 58 | 1020.0 |
| 20260905175605 | 17 | 299 | 12.9 | 12.9 | 0.00 | 0.00 | 0.00 | 58 | 1020.0 |
| 20260905175405 | 17 | 276 | 14.5 | 14.5 | 0.00 | 0.00 | 0.00 | 58 | 1020.0 |
| 20260905175207 | 17 | 282 | 11.3 | 11.3 | 0.00 | 0.00 | 0.00 | 58 | 1020.0 |
| 20260905174806 | 17 | 286 | 11.3 | 11.3 | 0.00 | 0.00 | 0.00 | 57 | 1020.0 |
| 20260905174606 | 17 | 284 | 12.9 | 12.9 | 0.00 | 0.00 | 0.00 | 57 | 1020.0 |
| 20260905174205 | 18 | 284 | 22.5 | 22.5 | 0.00 | 0.00 | 0.00 | 55 | 1020.0 |
| 20260905174012 | 18 | 284 | 8.0 | 8.0 | 0.00 | 0.00 | 0.00 | 55 | 1020.0 |
| 20260905173807 | 18 | 292 | 12.9 | 12.9 | 0.00 | 0.00 | 0.00 | 55 | 1020.0 |
| 20260905173606 | 18 | 282 | 14.5 | 14.5 | 0.00 | 0.00 | 0.00 | 54 | 1020.0 |
| 20260905173205 | 18 | 282 | 22.5 | 22.5 | 0.00 | 0.00 | 0.00 | 53 | 1020.0 |
| 20260905173011 | 19 | 298 | 22.5 | 22.5 | 0.00 | 0.00 | 0.00 | 52 | 1020.0 |
| 20260905172806 | 19 | 288 | 22.5 | 22.5 | 0.00 | 0.00 | 0.00 | 52 | 1020.0 |
| 20260905172605 | 19 | 274 | 14.5 | 14.5 | 0.00 | 0.00 | 0.00 | 51 | 1020.0 |
| 20260905172407 | 19 | 246 | 32.2 | 35.4 | 0.00 | 0.00 | 0.00 | 50 | 1020.0 |
| 20260905172207 | 19 | 282 | 38.6 | 41.8 | 0.00 | 0.00 | 0.00 | 50 | 1020.0 |
| 20260905172009 | 19 | 286 | 32.2 | 35.4 | 0.00 | 0.00 | 0.00 | 50 | 1020.0 |
| 20260905171806 | 19 | 246 | 49.9 | 49.9 | 0.00 | 0.00 | 0.00 | 50 | 1020.0 |
| 20260905171607 | 19 | 288 | 22.5 | 22.5 | 0.00 | 0.00 | 0.00 | 51 | 1020.0 |
| 20260905171406 | 19 | 276 | 24.1 | 24.1 | 0.00 | 0.00 | 0.00 | 50 | 1020.0 |
| 20260905171204 | 19 | 288 | 22.5 | 22.5 | 0.00 | 0.00 | 0.00 | 50 | 1020.0 |
| 20260905171010 | 20 | 237 | 25.7 | 27.4 | 0.00 | 0.00 | 0.00 | 50 | 1019.0 |
| 20260905170606 | 20 | 275 | 24.1 | 24.1 | 0.00 | 0.00 | 0.00 | 49 | 1019.0 |
| 20260905170407 | 20 | 324 | 51.5 | 54.7 | 0.00 | 0.00 | 0.00 | 49 | 1019.0 |
| 20260905170207 | 20 | 287 | 41.8 | 48.3 | 0.00 | 0.00 | 0.00 | 49 | 1019.0 |
| 20260905170019 | 20 | 248 | 32.2 | 35.4 | 0.00 | 0.00 | 0.00 | 48 | 1019.0 |
| 20260905165807 | 20 | 289 | 33.8 | 35.4 | 0.00 | 0.00 | 0.00 | 48 | 1019.0 |
| 20260905165607 | 20 | 289 | 37.0 | 41.8 | 0.00 | 0.00 | 0.00 | 47 | 1019.0 |
| 20260905165405 | 21 | 284 | 29.0 | 32.2 | 0.00 | 0.00 | 0.00 | 47 | 1019.0 |
| 20260905165206 | 21 | 281 | 61.2 | 69.2 | 0.00 | 0.00 | 0.00 | 47 | 1019.0 |
| 20260905165008 | 21 | 246 | 46.7 | 49.9 | 0.00 | 0.00 | 0.00 | 46 | 1019.0 |
| 20260905164607 | 21 | 264 | 38.6 | 45.1 | 0.00 | 0.00 | 0.00 | 46 | 1019.0 |
| 20260905164406 | 21 | 240 | 29.0 | 30.6 | 0.00 | 0.00 | 0.00 | 46 | 1019.0 |
| 20260905164207 | 21 | 256 | 48.3 | 49.9 | 0.00 | 0.00 | 0.00 | 45 | 1019.0 |
| 20260905164008 | 21 | 298 | 37.0 | 41.8 | 0.00 | 0.00 | 0.00 | 45 | 1019.0 |
| 20260905163806 | 21 | 252 | 27.4 | 29.0 | 0.00 | 0.00 | 0.00 | 45 | 1019.0 |
| 20260905163405 | 21 | 204 | 38.6 | 41.8 | 0.00 | 0.00 | 0.00 | 44 | 1019.0 |
| 20260905163205 | 21 | 247 | 22.5 | 22.5 | 0.00 | 0.00 | 0.00 | 44 | 1019.0 |
| 20260905163014 | 21 | 311 | 14.5 | 14.5 | 0.00 | 0.00 | 0.00 | 44 | 1019.0 |
| 20260905162805 | 21 | 234 | 29.0 | 30.6 | 0.00 | 0.00 | 0.00 | 44 | 1019.0 |
| 20260905162607 | 21 | 264 | 38.6 | 45.1 | 0.00 | 0.00 | 0.00 | 44 | 1019.0 |
| 20260905162406 | 21 | 229 | 46.7 | 48.3 | 0.00 | 0.00 | 0.00 | 44 | 1019.0 |
| 20260905162207 | 21 | 259 | 22.5 | 22.5 | 0.00 | 0.00 | 0.00 | 44 | 1019.0 |
| 20260905162009 | 21 | 264 | 49.9 | 54.7 | 0.00 | 0.00 | 0.00 | 44 | 1019.0 |
| 20260905161806 | 21 | 287 | 46.7 | 48.3 | 0.00 | 0.00 | 0.00 | 44 | 1019.0 |
| 20260905161606 | 21 | 264 | 27.4 | 29.0 | 0.00 | 0.00 | 0.00 | 44 | 1019.0 |
| 20260905161406 | 21 | 245 | 32.2 | 33.8 | 0.00 | 0.00 | 0.00 | 44 | 1019.0 |
| 20260905161207 | 21 | 229 | 40.2 | 48.3 | 0.00 | 0.00 | 0.00 | 43 | 1019.0 |
| 20260905161009 | 22 | 234 | 49.9 | 49.9 | 0.00 | 0.00 | 0.00 | 42 | 1019.0 |
| 20260905160807 | 22 | 259 | 45.1 | 49.9 | 0.00 | 0.00 | 0.00 | 42 | 1019.0 |
| 20260905160607 | 22 | 234 | 41.8 | 41.8 | 0.00 | 0.00 | 0.00 | 42 | 1019.0 |
| 20260905160405 | 22 | 270 | 22.5 | 22.5 | 0.00 | 0.00 | 0.00 | 43 | 1019.0 |
| 20260905160016 | 21 | 302 | 45.1 | 45.1 | 0.00 | 0.00 | 0.00 | 42 | 1019.0 |
| 20260905155806 | 22 | 282 | 41.8 | 48.3 | 0.00 | 0.00 | 0.00 | 42 | 1019.0 |
| 20260905155605 | 21 | 228 | 53.1 | 61.2 | 0.00 | 0.00 | 0.00 | 42 | 1019.0 |
| 20260905155405 | 21 | 270 | 67.6 | 75.6 | 0.00 | 0.00 | 0.00 | 42 | 1019.0 |
| 20260905155205 | 21 | 294 | 67.6 | 75.6 | 0.00 | 0.00 | 0.00 | 42 | 1019.0 |
| 20260905154605 | 21 | 282 | 72.4 | 78.9 | 0.00 | 0.00 | 0.00 | 42 | 1019.0 |
| 20260905154406 | 21 | 264 | 33.8 | 35.4 | 0.00 | 0.00 | 0.00 | 42 | 1019.0 |
| 20260905154012 | 22 | 253 | 49.9 | 61.2 | 0.00 | 0.00 | 0.00 | 42 | 1019.0 |
| 20260905153805 | 21 | 284 | 33.8 | 35.4 | 0.00 | 0.00 | 0.00 | 42 | 1019.0 |
| 20260905153605 | 21 | 241 | 49.9 | 54.7 | 0.00 | 0.00 | 0.00 | 41 | 1019.0 |
| 20260905153404 | 21 | 240 | 33.8 | 35.4 | 0.00 | 0.00 | 0.00 | 42 | 1019.0 |
| 20260905153205 | 21 | 286 | 64.4 | 75.6 | 0.00 | 0.00 | 0.00 | 43 | 1019.0 |
| 20260905153011 | 21 | 242 | 49.9 | 51.5 | 0.00 | 0.00 | 0.00 | 43 | 1019.0 |
| 20260905152807 | 21 | 198 | 35.4 | 40.2 | 0.00 | 0.00 | 0.00 | 44 | 1019.0 |
| 20260905152606 | 21 | 294 | 48.3 | 51.5 | 0.00 | 0.00 | 0.00 | 44 | 1019.0 |
| 20260905152407 | 21 | 282 | 41.8 | 48.3 | 0.00 | 0.00 | 0.00 | 43 | 1019.0 |
| 20260905152204 | 21 | 289 | 48.3 | 49.9 | 0.00 | 0.00 | 0.00 | 43 | 1019.0 |
| 20260905152011 | 21 | 288 | 61.2 | 66.0 | 0.00 | 0.00 | 0.00 | 43 | 1019.0 |
| 20260905151807 | 21 | 295 | 49.9 | 51.5 | 0.00 | 0.00 | 0.00 | 41 | 1019.0 |
| 20260905151405 | 20 | 234 | 35.4 | 38.6 | 0.00 | 0.00 | 0.00 | 44 | 1019.0 |
| 20260905151205 | 21 | 252 | 48.3 | 49.9 | 0.00 | 0.00 | 0.00 | 43 | 1019.0 |
| 20260905151012 | 21 | 198 | 49.9 | 51.5 | 0.00 | 0.00 | 0.00 | 42 | 1019.0 |
| 20260905150606 | 20 | 276 | 38.6 | 41.8 | 0.00 | 0.00 | 0.00 | 45 | 1019.0 |
| 20260905150208 | 20 | 263 | 53.1 | 61.2 | 0.00 | 0.00 | 0.00 | 46 | 1019.0 |
| 20260905150015 | 21 | 253 | 37.0 | 40.2 | 0.00 | 0.00 | 0.00 | 45 | 1019.0 |
| 20260905145807 | 21 | 282 | 45.1 | 45.1 | 0.00 | 0.00 | 0.00 | 45 | 1019.0 |
| 20260905145608 | 20 | 270 | 49.9 | 51.5 | 0.00 | 0.00 | 0.00 | 45 | 1019.0 |
| 20260905145405 | 21 | 243 | 45.1 | 45.1 | 0.00 | 0.00 | 0.00 | 45 | 1019.0 |
| 20260905145205 | 21 | 235 | 48.3 | 49.9 | 0.00 | 0.00 | 0.00 | 43 | 1019.0 |
| 20260905145012 | 20 | 303 | 35.4 | 40.2 | 0.00 | 0.00 | 0.00 | 45 | 1019.0 |
| 20260905144804 | 20 | 220 | 49.9 | 49.9 | 0.00 | 0.00 | 0.00 | 44 | 1019.0 |
| 20260905144606 | 20 | 271 | 40.2 | 48.3 | 0.00 | 0.00 | 0.00 | 44 | 1019.0 |
| 20260905144406 | 20 | 222 | 37.0 | 40.2 | 0.00 | 0.00 | 0.00 | 44 | 1019.0 |
| 20260905144205 | 20 | 284 | 62.8 | 70.8 | 0.00 | 0.00 | 0.00 | 45 | 1019.0 |
| 20260905144009 | 20 | 288 | 38.6 | 45.1 | 0.00 | 0.00 | 0.00 | 44 | 1019.0 |
| 20260905143606 | 20 | 240 | 64.4 | 70.8 | 0.00 | 0.00 | 0.00 | 45 | 1019.0 |
| 20260905143405 | 20 | 234 | 32.2 | 35.4 | 0.00 | 0.00 | 0.00 | 45 | 1019.0 |
| 20260905143206 | 20 | 224 | 67.6 | 75.6 | 0.00 | 0.00 | 0.00 | 44 | 1019.0 |
| 20260905142807 | 21 | 271 | 48.3 | 49.9 | 0.00 | 0.00 | 0.00 | 44 | 1019.0 |
| 20260905142605 | 21 | 222 | 35.4 | 38.6 | 0.00 | 0.00 | 0.00 | 43 | 1019.0 |
| 20260905142405 | 21 | 228 | 66.0 | 70.8 | 0.00 | 0.00 | 0.00 | 42 | 1019.0 |
| 20260905142207 | 21 | 306 | 69.2 | 75.6 | 0.00 | 0.00 | 0.00 | 44 | 1019.0 |
| 20260905142008 | 21 | 186 | 33.8 | 35.4 | 0.00 | 0.00 | 0.00 | 44 | 1019.0 |
| 20260905141807 | 21 | 299 | 49.9 | 49.9 | 0.00 | 0.00 | 0.00 | 44 | 1019.0 |
| 20260905141607 | 21 | 271 | 51.5 | 54.7 | 0.00 | 0.00 | 0.00 | 44 | 1019.0 |
| 20260905141406 | 21 | 276 | 24.1 | 24.1 | 0.00 | 0.00 | 0.00 | 43 | 1019.0 |
| 20260905141207 | 21 | 235 | 41.8 | 48.3 | 0.00 | 0.00 | 0.00 | 44 | 1019.0 |
| 20260905141010 | 21 | 259 | 75.6 | 88.5 | 0.00 | 0.00 | 0.00 | 44 | 1019.0 |
| 20260905140808 | 22 | 276 | 78.9 | 90.1 | 0.00 | 0.00 | 0.00 | 42 | 1019.0 |
| 20260905140406 | 22 | 278 | 69.2 | 75.6 | 0.00 | 0.00 | 0.00 | 40 | 1019.0 |
| 20260905140016 | 22 | 288 | 85.3 | 95.0 | 0.00 | 0.00 | 0.00 | 39 | 1019.0 |
| 20260905135805 | 22 | 271 | 66.0 | 70.8 | 0.00 | 0.00 | 0.00 | 39 | 1019.0 |
| 20260905135605 | 22 | 266 | 95.0 | 101.4 | 0.00 | 0.00 | 0.00 | 40 | 1019.0 |
| 20260905135206 | 21 | 306 | 74.0 | 88.5 | 0.00 | 0.00 | 0.00 | 42 | 1019.0 |
| 20260905135011 | 21 | 287 | 62.8 | 74.0 | 0.00 | 0.00 | 0.00 | 44 | 1019.0 |
| 20260905134805 | 22 | 300 | 69.2 | 85.3 | 0.00 | 0.00 | 0.00 | 42 | 1019.0 |
| 20260905134607 | 22 | 282 | 69.2 | 75.6 | 0.00 | 0.00 | 0.00 | 43 | 1019.0 |
| 20260905134405 | 22 | 282 | 69.2 | 74.0 | 0.00 | 0.00 | 0.00 | 42 | 1019.0 |
| 20260905134205 | 22 | 264 | 61.2 | 70.8 | 0.00 | 0.00 | 0.00 | 41 | 1019.0 |
| 20260905134009 | 22 | 291 | 45.1 | 49.9 | 0.00 | 0.00 | 0.00 | 42 | 1019.0 |
| 20260905133807 | 22 | 241 | 88.5 | 104.6 | 0.00 | 0.00 | 0.00 | 43 | 1019.0 |
| 20260905133605 | 22 | 232 | 27.4 | 29.0 | 0.00 | 0.00 | 0.00 | 41 | 1019.0 |
| 20260905133423 | 22 | 300 | 75.6 | 86.9 | 0.00 | 0.00 | 0.00 | 42 | 1019.0 |
| 20260905133205 | 22 | 270 | 69.2 | 75.6 | 0.00 | 0.00 | 0.00 | 40 | 1019.0 |
| 20260905133012 | 22 | 288 | 75.6 | 86.9 | 0.00 | 0.00 | 0.00 | 40 | 1019.0 |
| 20260905132805 | 22 | 239 | 37.0 | 40.2 | 0.00 | 0.00 | 0.00 | 41 | 1019.0 |
| 20260905132605 | 22 | 216 | 45.1 | 49.9 | 0.00 | 0.00 | 0.00 | 41 | 1019.0 |
| 20260905132504 | 22 | 212 | 37.0 | 41.8 | 0.00 | 0.00 | 0.00 | 41 | 1019.0 |
| 20260905131807 | 22 | 203 | 38.6 | 45.1 | 0.00 | 0.00 | 0.00 | 41 | 1019.0 |
| 20260905131008 | 22 | 280 | 67.6 | 86.9 | 0.00 | 0.00 | 0.00 | 41 | 1019.0 |
| 20260905130806 | 22 | 306 | 78.9 | 91.7 | 0.00 | 0.00 | 0.00 | 41 | 1019.0 |
| 20260905130607 | 22 | 264 | 67.6 | 74.0 | 0.00 | 0.00 | 0.00 | 43 | 1019.0 |
| 20260905130204 | 21 | 281 | 53.1 | 61.2 | 0.00 | 0.00 | 0.00 | 46 | 1019.0 |
| 20260905130019 | 21 | 282 | 40.2 | 45.1 | 0.00 | 0.00 | 0.00 | 46 | 1019.0 |
| 20260905125607 | 22 | 43 | 45.1 | 49.9 | 0.00 | 0.00 | 0.00 | 43 | 1019.0 |
| 20260905125406 | 22 | 304 | 45.1 | 49.9 | 0.00 | 0.00 | 0.00 | 42 | 1019.0 |
| 20260905125205 | 22 | 254 | 64.4 | 70.8 | 0.00 | 0.00 | 0.00 | 42 | 1019.0 |
| 20260905125007 | 22 | 282 | 75.6 | 88.5 | 0.00 | 0.00 | 0.00 | 43 | 1019.0 |
| 20260905124405 | 21 | 264 | 99.8 | 111.0 | 0.00 | 0.00 | 0.00 | 44 | 1019.0 |
| 20260905124205 | 22 | 270 | 45.1 | 49.9 | 0.00 | 0.00 | 0.00 | 41 | 1019.0 |
| 20260905124010 | 22 | 196 | 48.3 | 49.9 | 0.00 | 0.00 | 0.00 | 42 | 1019.0 |
| 20260905123805 | 22 | 221 | 38.6 | 45.1 | 0.00 | 0.00 | 0.00 | 42 | 1019.0 |
| 20260905123606 | 22 | 186 | 45.1 | 45.1 | 0.00 | 0.00 | 0.00 | 43 | 1019.0 |
| 20260905123405 | 22 | 246 | 38.6 | 41.8 | 0.00 | 0.00 | 0.00 | 42 | 1019.0 |
| 20260905123012 | 21 | 303 | 32.2 | 33.8 | 0.00 | 0.00 | 0.00 | 44 | 1019.0 |
| 20260905122805 | 21 | 288 | 67.6 | 74.0 | 0.00 | 0.00 | 0.00 | 44 | 1019.0 |
| 20260905122607 | 21 | 287 | 61.2 | 70.8 | 0.00 | 0.00 | 0.00 | 44 | 1019.0 |
| 20260905122206 | 21 | 228 | 40.2 | 45.1 | 0.00 | 0.00 | 0.00 | 45 | 1019.0 |
| 20260905122010 | 21 | 253 | 69.2 | 80.5 | 0.00 | 0.00 | 0.00 | 44 | 1019.0 |
| 20260905121805 | 21 | 289 | 54.7 | 62.8 | 0.00 | 0.00 | 0.00 | 46 | 1019.0 |
| 20260905121606 | 21 | 248 | 49.9 | 51.5 | 0.00 | 0.00 | 0.00 | 45 | 1019.0 |
| 20260905121405 | 21 | 258 | 51.5 | 54.7 | 0.00 | 0.00 | 0.00 | 45 | 1019.0 |
| 20260905121205 | 21 | 281 | 75.6 | 86.9 | 0.00 | 0.00 | 0.00 | 44 | 1019.0 |
| 20260905121008 | 21 | 293 | 107.8 | 115.9 | 0.00 | 0.00 | 0.00 | 44 | 1019.0 |
| 20260905120605 | 21 | 270 | 69.2 | 74.0 | 0.00 | 0.00 | 0.00 | 44 | 1019.0 |
| 20260905120405 | 20 | 254 | 62.8 | 66.0 | 0.00 | 0.00 | 0.00 | 48 | 1019.0 |
| 20260905120206 | 21 | 289 | 95.0 | 98.2 | 0.00 | 0.00 | 0.00 | 46 | 1019.0 |
| 20260905120018 | 22 | 290 | 30.6 | 32.2 | 0.00 | 0.00 | 0.00 | 44 | 1019.0 |
| 20260905115807 | 22 | 236 | 45.1 | 49.9 | 0.00 | 0.00 | 0.00 | 44 | 1019.0 |
| 20260905115606 | 22 | 253 | 40.2 | 45.1 | 0.00 | 0.00 | 0.00 | 47 | 1019.0 |
| 20260905115406 | 21 | 245 | 70.8 | 85.3 | 0.00 | 0.00 | 0.00 | 46 | 1019.0 |
| 20260905115204 | 21 | 222 | 37.0 | 41.8 | 0.00 | 0.00 | 0.00 | 45 | 1019.0 |
| 20260905114807 | 20 | 270 | 64.4 | 69.2 | 0.00 | 0.00 | 0.00 | 48 | 1019.0 |
| 20260905114605 | 20 | 295 | 38.6 | 41.8 | 0.00 | 0.00 | 0.00 | 48 | 1019.0 |
| 20260905114405 | 21 | 289 | 40.2 | 48.3 | 0.00 | 0.00 | 0.00 | 47 | 1019.0 |
| 20260905114206 | 21 | 228 | 64.4 | 69.2 | 0.00 | 0.00 | 0.00 | 47 | 1019.0 |
| 20260905114012 | 21 | 299 | 37.0 | 41.8 | 0.00 | 0.00 | 0.00 | 47 | 1019.0 |
| 20260905113607 | 21 | 324 | 69.2 | 74.0 | 0.00 | 0.00 | 0.00 | 47 | 1019.0 |
| 20260905113405 | 21 | 336 | 49.9 | 51.5 | 0.00 | 0.00 | 0.00 | 47 | 1019.0 |
| 20260905113205 | 21 | 275 | 49.9 | 49.9 | 0.00 | 0.00 | 0.00 | 48 | 1019.0 |
| 20260905113012 | 20 | 247 | 61.2 | 66.0 | 0.00 | 0.00 | 0.00 | 46 | 1019.0 |
| 20260905112804 | 20 | 286 | 51.5 | 54.7 | 0.00 | 0.00 | 0.00 | 48 | 1019.0 |
| 20260905112607 | 20 | 168 | 40.2 | 45.1 | 0.00 | 0.00 | 0.00 | 48 | 1019.0 |
| 20260905112407 | 20 | 259 | 61.2 | 66.0 | 0.00 | 0.00 | 0.00 | 49 | 1020.0 |
| 20260905112206 | 20 | 252 | 62.8 | 69.2 | 0.00 | 0.00 | 0.00 | 49 | 1020.0 |
| 20260905112010 | 20 | 302 | 45.1 | 49.9 | 0.00 | 0.00 | 0.00 | 52 | 1019.0 |
| 20260905111806 | 21 | 289 | 49.9 | 51.5 | 0.00 | 0.00 | 0.00 | 50 | 1019.0 |
| 20260905111606 | 21 | 312 | 38.6 | 41.8 | 0.00 | 0.00 | 0.00 | 48 | 1019.0 |
| 20260905111407 | 20 | 266 | 32.2 | 35.4 | 0.00 | 0.00 | 0.00 | 51 | 1020.0 |
| 20260905111205 | 20 | 242 | 51.5 | 54.7 | 0.00 | 0.00 | 0.00 | 51 | 1020.0 |
| 20260905111009 | 20 | 282 | 35.4 | 37.0 | 0.00 | 0.00 | 0.00 | 49 | 1019.0 |
| 20260905110806 | 20 | 249 | 35.4 | 37.0 | 0.00 | 0.00 | 0.00 | 53 | 1019.0 |
| 20260905110605 | 20 | 294 | 45.1 | 49.9 | 0.00 | 0.00 | 0.00 | 51 | 1019.0 |
| 20260905110405 | 21 | 283 | 24.1 | 24.1 | 0.00 | 0.00 | 0.00 | 50 | 1019.0 |
| 20260905110206 | 21 | 229 | 30.6 | 33.8 | 0.00 | 0.00 | 0.00 | 52 | 1019.0 |
| 20260905110021 | 21 | 254 | 48.3 | 49.9 | 0.00 | 0.00 | 0.00 | 52 | 1020.0 |
| 20260905105606 | 21 | 241 | 41.8 | 48.3 | 0.00 | 0.00 | 0.00 | 54 | 1020.0 |
| 20260905105205 | 20 | 218 | 33.8 | 35.4 | 0.00 | 0.00 | 0.00 | 51 | 1020.0 |
| 20260905104805 | 20 | 276 | 22.5 | 22.5 | 0.00 | 0.00 | 0.00 | 54 | 1019.0 |
| 20260905104607 | 20 | 327 | 38.6 | 41.8 | 0.00 | 0.00 | 0.00 | 52 | 1019.0 |
| 20260905104405 | 20 | 222 | 35.4 | 38.6 | 0.00 | 0.00 | 0.00 | 55 | 1019.0 |
| 20260905104207 | 20 | 295 | 32.2 | 35.4 | 0.00 | 0.00 | 0.00 | 56 | 1019.0 |
| 20260905104009 | 20 | 277 | 33.8 | 35.4 | 0.00 | 0.00 | 0.00 | 54 | 1019.0 |
| 20260905103805 | 20 | 282 | 53.1 | 61.2 | 0.00 | 0.00 | 0.00 | 53 | 1019.0 |
| 20260905103605 | 20 | 268 | 46.7 | 49.9 | 0.00 | 0.00 | 0.00 | 53 | 1019.0 |
| 20260905103406 | 21 | 246 | 38.6 | 45.1 | 0.00 | 0.00 | 0.00 | 54 | 1019.0 |
| 20260905103206 | 21 | 229 | 37.0 | 40.2 | 0.00 | 0.00 | 0.00 | 53 | 1019.0 |
| 20260905102807 | 20 | 256 | 24.1 | 27.4 | 0.00 | 0.00 | 0.00 | 54 | 1020.0 |
| 20260905102407 | 20 | 230 | 33.8 | 35.4 | 0.00 | 0.00 | 0.00 | 57 | 1019.0 |
| 20260905102012 | 19 | 222 | 35.4 | 38.6 | 0.00 | 0.00 | 0.00 | 60 | 1019.0 |
| 20260905101806 | 20 | 246 | 35.4 | 40.2 | 0.00 | 0.00 | 0.00 | 56 | 1019.0 |
| 20260905101606 | 20 | 218 | 45.1 | 49.9 | 0.00 | 0.00 | 0.00 | 60 | 1019.0 |
| 20260905101407 | 20 | 228 | 61.2 | 66.0 | 0.00 | 0.00 | 0.00 | 58 | 1020.0 |
| 20260905101207 | 20 | 210 | 41.8 | 41.8 | 0.00 | 0.00 | 0.00 | 58 | 1020.0 |
| 20260905101008 | 20 | 252 | 38.6 | 41.8 | 0.00 | 0.00 | 0.00 | 60 | 1020.0 |
| 20260905100805 | 20 | 286 | 37.0 | 40.2 | 0.00 | 0.00 | 0.00 | 57 | 1020.0 |
| 20260905100606 | 20 | 257 | 29.0 | 30.6 | 0.00 | 0.00 | 0.00 | 57 | 1020.0 |
| 20260905100407 | 20 | 245 | 22.5 | 22.5 | 0.00 | 0.00 | 0.00 | 60 | 1020.0 |
| 20260905100205 | 20 | 278 | 49.9 | 51.5 | 0.00 | 0.00 | 0.00 | 60 | 1020.0 |
| 20260905100029 | 20 | 190 | 49.9 | 51.5 | 0.00 | 0.00 | 0.00 | 58 | 1020.0 |
| 20260905095806 | 20 | 162 | 49.9 | 54.7 | 0.00 | 0.00 | 0.00 | 58 | 1020.0 |
| 20260905095606 | 20 | 217 | 37.0 | 40.2 | 0.00 | 0.00 | 0.00 | 58 | 1020.0 |
| 20260905095406 | 20 | 216 | 41.8 | 49.9 | 0.00 | 0.00 | 0.00 | 59 | 1020.0 |
| 20260905095010 | 20 | 264 | 37.0 | 40.2 | 0.00 | 0.00 | 0.00 | 61 | 1020.0 |
| 20260905094606 | 20 | 214 | 35.4 | 38.6 | 0.00 | 0.00 | 0.00 | 59 | 1020.0 |
| 20260905094406 | 20 | 184 | 54.7 | 62.8 | 0.00 | 0.00 | 0.00 | 59 | 1020.0 |
| 20260905094216 | 20 | 210 | 37.0 | 41.8 | 0.00 | 0.00 | 0.00 | 59 | 1020.0 |
| 20260905094012 | 20 | 269 | 35.4 | 38.6 | 0.00 | 0.00 | 0.00 | 59 | 1020.0 |
| 20260905093805 | 20 | 252 | 22.5 | 22.5 | 0.00 | 0.00 | 0.00 | 61 | 1020.0 |
| 20260905093606 | 20 | 262 | 22.5 | 22.5 | 0.00 | 0.00 | 0.00 | 60 | 1020.0 |
| 20260905093405 | 20 | 190 | 30.6 | 32.2 | 0.00 | 0.00 | 0.00 | 62 | 1020.0 |
| 20260905093206 | 20 | 212 | 45.1 | 45.1 | 0.00 | 0.00 | 0.00 | 62 | 1020.0 |
| 20260905093016 | 20 | 234 | 53.1 | 61.2 | 0.00 | 0.00 | 0.00 | 63 | 1020.0 |
| 20260905092806 | 19 | 246 | 25.7 | 27.4 | 0.00 | 0.00 | 0.00 | 61 | 1020.0 |
| 20260905092606 | 19 | 217 | 35.4 | 37.0 | 0.00 | 0.00 | 0.00 | 62 | 1020.0 |
| 20260905092205 | 18 | 284 | 29.0 | 30.6 | 0.00 | 0.00 | 0.00 | 66 | 1020.0 |
| 20260905092011 | 18 | 270 | 48.3 | 49.9 | 0.00 | 0.00 | 0.00 | 64 | 1020.0 |
| 20260905091606 | 18 | 264 | 35.4 | 37.0 | 0.00 | 0.00 | 0.00 | 67 | 1020.0 |
| 20260905091011 | 19 | 234 | 33.8 | 35.4 | 0.00 | 0.00 | 0.00 | 68 | 1020.0 |
| 20260905090805 | 18 | 258 | 48.3 | 51.5 | 0.00 | 0.00 | 0.00 | 69 | 1020.0 |
| 20260905090604 | 18 | 253 | 48.3 | 51.5 | 0.00 | 0.00 | 0.00 | 69 | 1020.0 |
| 20260905090407 | 18 | 204 | 54.7 | 70.8 | 0.00 | 0.00 | 0.00 | 70 | 1020.0 |
| 20260905090206 | 17 | 233 | 41.8 | 48.3 | 0.00 | 0.00 | 0.00 | 72 | 1020.0 |
| 20260905090015 | 17 | 218 | 38.6 | 41.8 | 0.00 | 0.00 | 0.00 | 73 | 1020.0 |
| 20260905085807 | 17 | 219 | 48.3 | 49.9 | 0.00 | 0.00 | 0.00 | 76 | 1020.0 |
| 20260905085607 | 18 | 270 | 37.0 | 41.8 | 0.00 | 0.00 | 0.00 | 71 | 1020.0 |
| 20260905085407 | 17 | 223 | 54.7 | 69.2 | 0.00 | 0.00 | 0.00 | 74 | 1020.0 |
| 20260905085205 | 17 | 186 | 32.2 | 35.4 | 0.00 | 0.00 | 0.00 | 76 | 1020.0 |
| 20260905085011 | 17 | 174 | 35.4 | 37.0 | 0.00 | 0.00 | 0.00 | 76 | 1020.0 |
| 20260905084805 | 17 | 198 | 46.7 | 48.3 | 0.00 | 0.00 | 0.00 | 75 | 1020.0 |
| 20260905084605 | 17 | 192 | 41.8 | 41.8 | 0.00 | 0.00 | 0.00 | 76 | 1020.0 |
| 20260905084206 | 17 | 198 | 29.0 | 29.0 | 0.00 | 0.00 | 0.00 | 78 | 1020.0 |
| 20260905084008 | 17 | 192 | 29.0 | 30.6 | 0.00 | 0.00 | 0.00 | 78 | 1020.0 |
| 20260905083806 | 17 | 204 | 24.1 | 27.4 | 0.00 | 0.00 | 0.00 | 80 | 1020.0 |
| 20260905083406 | 16 | 216 | 32.2 | 35.4 | 0.00 | 0.00 | 0.00 | 79 | 1020.0 |
| 20260905083206 | 16 | 258 | 27.4 | 29.0 | 0.00 | 0.00 | 0.00 | 80 | 1020.0 |
| 20260905083012 | 15 | 202 | 22.5 | 22.5 | 0.00 | 0.00 | 0.00 | 81 | 1020.0 |
| 20260905082806 | 15 | 222 | 27.4 | 29.0 | 0.00 | 0.00 | 0.00 | 83 | 1020.0 |
| 20260905082605 | 15 | 192 | 27.4 | 29.0 | 0.00 | 0.00 | 0.00 | 83 | 1020.0 |
| 20260905082405 | 15 | 216 | 22.5 | 22.5 | 0.00 | 0.00 | 0.00 | 81 | 1020.0 |
| 20260905082205 | 15 | 210 | 27.4 | 29.0 | 0.00 | 0.00 | 0.00 | 82 | 1020.0 |
| 20260905082010 | 15 | 192 | 30.6 | 32.2 | 0.00 | 0.00 | 0.00 | 82 | 1020.0 |
| 20260905081806 | 15 | 204 | 27.4 | 29.0 | 0.00 | 0.00 | 0.00 | 82 | 1020.0 |
| 20260905081205 | 15 | 228 | 22.5 | 22.5 | 0.00 | 0.00 | 0.00 | 82 | 1020.0 |
| 20260905081012 | 15 | 228 | 24.1 | 24.1 | 0.00 | 0.00 | 0.00 | 82 | 1019.0 |
| 20260905080806 | 15 | 224 | 22.5 | 22.5 | 0.00 | 0.00 | 0.00 | 83 | 1019.0 |
| 20260905080606 | 15 | 228 | 32.2 | 35.4 | 0.00 | 0.00 | 0.00 | 82 | 1019.0 |
| 20260905080405 | 15 | 222 | 25.7 | 27.4 | 0.00 | 0.00 | 0.00 | 83 | 1019.0 |
| 20260905080205 | 15 | 252 | 14.5 | 14.5 | 0.00 | 0.00 | 0.00 | 82 | 1019.0 |
| 20260905075807 | 15 | 246 | 14.5 | 14.5 | 0.00 | 0.00 | 0.00 | 82 | 1019.0 |
| 20260905075606 | 15 | 210 | 22.5 | 22.5 | 0.00 | 0.00 | 0.00 | 83 | 1019.0 |
| 20260905075405 | 15 | 241 | 12.9 | 12.9 | 0.00 | 0.00 | 0.00 | 83 | 1019.0 |
| 20260905075221 | 15 | 216 | 14.5 | 14.5 | 0.00 | 0.00 | 0.00 | 83 | 1019.0 |
| 20260905075008 | 15 | 192 | 22.5 | 22.5 | 0.00 | 0.00 | 0.00 | 84 | 1019.0 |
| 20260905074805 | 14 | 224 | 14.5 | 14.5 | 0.00 | 0.00 | 0.00 | 85 | 1019.0 |
| 20260905074607 | 14 | 230 | 22.5 | 22.5 | 0.00 | 0.00 | 0.00 | 84 | 1019.0 |
| 20260905074405 | 14 | 234 | 14.5 | 14.5 | 0.00 | 0.00 | 0.00 | 84 | 1019.0 |
| 20260905074207 | 14 | 222 | 14.5 | 14.5 | 0.00 | 0.00 | 0.00 | 86 | 1019.0 |
| 20260905074010 | 14 | 198 | 12.9 | 12.9 | 0.00 | 0.00 | 0.00 | 85 | 1019.0 |
| 20260905073806 | 14 | 228 | 9.7 | 9.7 | 0.00 | 0.00 | 0.00 | 85 | 1019.0 |
| 20260905073606 | 14 | 306 | 12.9 | 12.9 | 0.00 | 0.00 | 0.00 | 85 | 1019.0 |
| 20260905073407 | 14 | 270 | 22.5 | 22.5 | 0.00 | 0.00 | 0.00 | 86 | 1019.0 |
| 20260905073205 | 14 | 252 | 14.5 | 14.5 | 0.00 | 0.00 | 0.00 | 85 | 1019.0 |
| 20260905073014 | 14 | 264 | 12.9 | 12.9 | 0.00 | 0.00 | 0.00 | 86 | 1019.0 |
| 20260905072807 | 14 | 282 | 14.5 | 14.5 | 0.00 | 0.00 | 0.00 | 86 | 1019.0 |
| 20260905072606 | 14 | 270 | 14.5 | 14.5 | 0.00 | 0.00 | 0.00 | 88 | 1019.0 |
| 20260905072407 | 14 | 287 | 12.9 | 12.9 | 0.00 | 0.00 | 0.00 | 88 | 1019.0 |
| 20260905072205 | 14 | 282 | 25.7 | 27.4 | 0.00 | 0.00 | 0.00 | 87 | 1019.0 |
| 20260905071805 | 13 | 276 | 27.4 | 29.0 | 0.00 | 0.00 | 0.00 | 87 | 1018.0 |
| 20260905071607 | 13 | 298 | 25.7 | 27.4 | 0.00 | 0.00 | 0.00 | 88 | 1018.0 |
| 20260905071412 | 13 | 298 | 14.5 | 14.5 | 0.00 | 0.00 | 0.00 | 87 | 1018.0 |
| 20260905071207 | 13 | 288 | 22.5 | 22.5 | 0.00 | 0.00 | 0.00 | 89 | 1018.0 |
| 20260905071011 | 13 | 286 | 25.7 | 27.4 | 0.00 | 0.00 | 0.00 | 88 | 1018.0 |
| 20260905070606 | 13 | 276 | 35.4 | 37.0 | 0.00 | 0.00 | 0.00 | 87 | 1018.0 |
| 20260905070407 | 13 | 275 | 29.0 | 30.6 | 0.00 | 0.00 | 0.00 | 89 | 1018.0 |
| 20260905070016 | 13 | 268 | 40.2 | 45.1 | 0.00 | 0.00 | 0.00 | 87 | 1018.0 |
| 20260905065822 | 13 | 273 | 14.5 | 14.5 | 0.00 | 0.00 | 0.00 | 88 | 1018.0 |
| 20260905065405 | 13 | 234 | 22.5 | 22.5 | 0.00 | 0.00 | 0.00 | 89 | 1018.0 |
| 20260905065206 | 13 | 222 | 29.0 | 30.6 | 0.00 | 0.00 | 0.00 | 88 | 1018.0 |
| 20260905065008 | 13 | 198 | 25.7 | 27.4 | 0.00 | 0.00 | 0.00 | 89 | 1018.0 |
| 20260905064807 | 13 | 204 | 24.1 | 24.1 | 0.00 | 0.00 | 0.00 | 89 | 1018.0 |
| 20260905064607 | 13 | 228 | 37.0 | 40.2 | 0.00 | 0.00 | 0.00 | 90 | 1018.0 |
| 20260905064405 | 13 | 204 | 12.9 | 12.9 | 0.00 | 0.00 | 0.00 | 90 | 1017.0 |
| 20260905064205 | 13 | 180 | 14.5 | 14.5 | 0.00 | 0.00 | 0.00 | 90 | 1017.0 |
| 20260905064009 | 13 | 180 | 33.8 | 35.4 | 0.00 | 0.00 | 0.00 | 91 | 1018.0 |
| 20260905063805 | 13 | 180 | 25.7 | 27.4 | 0.00 | 0.00 | 0.00 | 89 | 1018.0 |
| 20260905063606 | 13 | 168 | 22.5 | 22.5 | 0.00 | 0.00 | 0.00 | 90 | 1018.0 |
| 20260905063012 | 13 | 204 | 22.5 | 22.5 | 0.00 | 0.00 | 0.00 | 91 | 1018.0 |
| 20260905062807 | 13 | 234 | 35.4 | 40.2 | 0.00 | 0.00 | 0.00 | 92 | 1018.0 |
| 20260905062606 | 13 | 216 | 32.2 | 33.8 | 0.00 | 0.00 | 0.00 | 92 | 1018.0 |
| 20260905062406 | 13 | 249 | 22.5 | 22.5 | 0.00 | 0.00 | 0.00 | 91 | 1019.0 |
| 20260905062205 | 13 | 204 | 35.4 | 38.6 | 0.00 | 0.00 | 0.00 | 90 | 1019.0 |
| 20260905062012 | 13 | 234 | 24.1 | 24.1 | 0.00 | 0.00 | 0.00 | 90 | 1019.0 |
| 20260905061807 | 13 | 224 | 24.1 | 24.1 | 0.00 | 0.00 | 0.00 | 90 | 1019.0 |
| 20260905061205 | 13 | 228 | 12.9 | 12.9 | 0.00 | 0.00 | 0.00 | 90 | 1019.0 |
| 20260905060807 | 13 | 210 | 14.5 | 14.5 | 0.00 | 0.00 | 0.00 | 89 | 1019.0 |
| 20260905060607 | 13 | 228 | 12.9 | 12.9 | 0.00 | 0.00 | 0.00 | 88 | 1019.0 |
| 20260905060206 | 13 | 204 | 27.4 | 29.0 | 0.00 | 0.00 | 0.00 | 88 | 1019.0 |
| 20260905060020 | 13 | 252 | 29.0 | 30.6 | 0.00 | 0.00 | 0.00 | 88 | 1019.0 |
| 20260905055607 | 13 | 258 | 14.5 | 14.5 | 0.00 | 0.00 | 0.00 | 87 | 1019.0 |
| 20260905055205 | 13 | 216 | 22.5 | 22.5 | 0.00 | 0.00 | 0.00 | 87 | 1019.0 |
| 20260905055013 | 13 | 279 | 22.5 | 22.5 | 0.00 | 0.00 | 0.00 | 87 | 1019.0 |
| 20260905054807 | 13 | 264 | 12.9 | 12.9 | 0.00 | 0.00 | 0.00 | 88 | 1019.0 |
| 20260905054607 | 13 | 240 | 22.5 | 22.5 | 0.00 | 0.00 | 0.00 | 88 | 1019.0 |
| 20260905053807 | 13 | 306 | 29.0 | 30.6 | 0.00 | 0.00 | 0.00 | 86 | 1019.0 |
| 20260905053607 | 13 | 282 | 33.8 | 35.4 | 0.00 | 0.00 | 0.00 | 86 | 1019.0 |
| 20260905053404 | 13 | 288 | 30.6 | 32.2 | 0.00 | 0.00 | 0.00 | 85 | 1019.0 |
| 20260905053206 | 13 | 288 | 32.2 | 35.4 | 0.00 | 0.00 | 0.00 | 85 | 1019.0 |
| 20260905053013 | 13 | 270 | 33.8 | 35.4 | 0.00 | 0.00 | 0.00 | 84 | 1019.0 |
| 20260905052606 | 14 | 292 | 29.0 | 30.6 | 0.00 | 0.00 | 0.00 | 83 | 1019.0 |
| 20260905052405 | 14 | 288 | 25.7 | 27.4 | 0.00 | 0.00 | 0.00 | 83 | 1019.0 |
| 20260905052207 | 14 | 306 | 35.4 | 37.0 | 0.00 | 0.00 | 0.00 | 82 | 1019.0 |
| 20260905052011 | 14 | 288 | 27.4 | 29.0 | 0.00 | 0.00 | 0.00 | 83 | 1019.0 |
| 20260905051806 | 14 | 280 | 14.5 | 14.5 | 0.00 | 0.00 | 0.00 | 82 | 1019.0 |
| 20260905051605 | 14 | 303 | 27.4 | 29.0 | 0.00 | 0.00 | 0.00 | 82 | 1019.0 |
| 20260905051207 | 14 | 276 | 14.5 | 14.5 | 0.00 | 0.00 | 0.00 | 81 | 1018.0 |
| 20260905051008 | 14 | 263 | 14.5 | 14.5 | 0.00 | 0.00 | 0.00 | 81 | 1018.0 |
| 20260905050807 | 14 | 253 | 12.9 | 12.9 | 0.00 | 0.00 | 0.00 | 81 | 1018.0 |
| 20260905050606 | 14 | 258 | 9.7 | 9.7 | 0.00 | 0.00 | 0.00 | 82 | 1018.0 |
| 20260905050406 | 14 | 276 | 12.9 | 12.9 | 0.00 | 0.00 | 0.00 | 83 | 1018.0 |
| 20260905050205 | 14 | 279 | 12.9 | 12.9 | 0.00 | 0.00 | 0.00 | 83 | 1018.0 |
| 20260905050015 | 14 | 279 | 14.5 | 14.5 | 0.00 | 0.00 | 0.00 | 83 | 1018.0 |
| 20260905045806 | 14 | 288 | 25.7 | 27.4 | 0.00 | 0.00 | 0.00 | 83 | 1018.0 |
| 20260905045406 | 14 | 270 | 14.5 | 14.5 | 0.00 | 0.00 | 0.00 | 83 | 1018.0 |
| 20260905045011 | 14 | 281 | 24.1 | 27.4 | 0.00 | 0.00 | 0.00 | 81 | 1018.0 |
| 20260905044806 | 14 | 286 | 29.0 | 30.6 | 0.00 | 0.00 | 0.00 | 82 | 1018.0 |
| 20260905044607 | 14 | 270 | 33.8 | 35.4 | 0.00 | 0.00 | 0.00 | 83 | 1018.0 |
| 20260905044405 | 14 | 279 | 25.7 | 29.0 | 0.00 | 0.00 | 0.00 | 84 | 1018.0 |
| 20260905044011 | 14 | 282 | 24.1 | 27.4 | 0.00 | 0.00 | 0.00 | 83 | 1018.0 |
| 20260905043805 | 14 | 254 | 25.7 | 27.4 | 0.00 | 0.00 | 0.00 | 83 | 1018.0 |
| 20260905043607 | 14 | 299 | 22.5 | 22.5 | 0.00 | 0.00 | 0.00 | 83 | 1018.0 |
| 20260905043405 | 14 | 270 | 12.9 | 12.9 | 0.00 | 0.00 | 0.00 | 83 | 1018.0 |
| 20260905043207 | 14 | 216 | 14.5 | 14.5 | 0.00 | 0.00 | 0.00 | 83 | 1018.0 |
| 20260905043014 | 14 | 273 | 14.5 | 14.5 | 0.00 | 0.00 | 0.00 | 83 | 1018.0 |
| 20260905042805 | 14 | 247 | 27.4 | 29.0 | 0.00 | 0.00 | 0.00 | 83 | 1018.0 |
| 20260905042606 | 14 | 279 | 14.5 | 14.5 | 0.00 | 0.00 | 0.00 | 83 | 1018.0 |
| 20260905042205 | 14 | 276 | 33.8 | 35.4 | 0.00 | 0.00 | 0.00 | 81 | 1017.0 |
| 20260905042008 | 14 | 300 | 29.0 | 30.6 | 0.00 | 0.00 | 0.00 | 80 | 1017.0 |
| 20260905041807 | 14 | 287 | 25.7 | 27.4 | 0.00 | 0.00 | 0.00 | 79 | 1017.0 |
| 20260905041406 | 14 | 292 | 29.0 | 30.6 | 0.00 | 0.00 | 0.00 | 80 | 1017.0 |
| 20260905041205 | 14 | 306 | 32.2 | 35.4 | 0.00 | 0.00 | 0.00 | 79 | 1017.0 |
| 20260905041011 | 14 | 282 | 27.4 | 29.0 | 0.00 | 0.00 | 0.00 | 80 | 1017.0 |
| 20260905040405 | 14 | 285 | 32.2 | 35.4 | 0.00 | 0.00 | 0.00 | 78 | 1017.0 |
| 20260905040205 | 15 | 280 | 35.4 | 40.2 | 0.00 | 0.00 | 0.00 | 77 | 1017.0 |
| 20260905035805 | 15 | 285 | 32.2 | 35.4 | 0.00 | 0.00 | 0.00 | 76 | 1018.0 |
| 20260905035606 | 15 | 285 | 32.2 | 35.4 | 0.00 | 0.00 | 0.00 | 77 | 1018.0 |
| 20260905035404 | 15 | 288 | 48.3 | 49.9 | 0.00 | 0.00 | 0.00 | 77 | 1017.0 |
| 20260905035207 | 15 | 294 | 33.8 | 35.4 | 0.00 | 0.00 | 0.00 | 77 | 1017.0 |
| 20260905035008 | 15 | 288 | 45.1 | 45.1 | 0.00 | 0.00 | 0.00 | 79 | 1017.0 |
| 20260905034806 | 14 | 292 | 40.2 | 40.2 | 0.00 | 0.00 | 0.00 | 79 | 1017.0 |
| 20260905034605 | 14 | 282 | 45.1 | 45.1 | 0.00 | 0.00 | 0.00 | 79 | 1017.0 |
| 20260905034405 | 14 | 318 | 29.0 | 30.6 | 0.00 | 0.00 | 0.00 | 79 | 1017.0 |
| 20260905034207 | 14 | 304 | 32.2 | 35.4 | 0.00 | 0.00 | 0.00 | 82 | 1017.0 |
| 20260905034008 | 15 | 294 | 27.4 | 29.0 | 0.00 | 0.00 | 0.00 | 81 | 1017.0 |
| 20260905033807 | 15 | 279 | 41.8 | 41.8 | 0.00 | 0.00 | 0.00 | 77 | 1017.0 |
| 20260905033606 | 15 | 270 | 32.2 | 35.4 | 0.00 | 0.00 | 0.00 | 76 | 1017.0 |
| 20260905033405 | 16 | 294 | 53.1 | 61.2 | 0.00 | 0.00 | 0.00 | 68 | 1017.0 |
| 20260905033205 | 16 | 262 | 53.1 | 61.2 | 0.00 | 0.00 | 0.00 | 67 | 1017.0 |
| 20260905033012 | 16 | 285 | 49.9 | 51.5 | 0.00 | 0.00 | 0.00 | 67 | 1017.0 |
| 20260905032407 | 16 | 312 | 27.4 | 29.0 | 0.00 | 0.00 | 0.00 | 68 | 1016.0 |
| 20260905032205 | 16 | 306 | 41.8 | 41.8 | 0.00 | 0.00 | 0.00 | 68 | 1016.0 |
| 20260905031607 | 16 | 270 | 61.2 | 62.8 | 0.00 | 0.00 | 0.00 | 67 | 1016.0 |
| 20260905031404 | 16 | 294 | 27.4 | 29.0 | 0.00 | 0.00 | 0.00 | 68 | 1016.0 |
| 20260905031008 | 16 | 306 | 29.0 | 30.6 | 0.00 | 0.00 | 0.00 | 69 | 1016.0 |
| 20260905030804 | 16 | 300 | 33.8 | 35.4 | 0.00 | 0.00 | 0.00 | 70 | 1016.0 |
| 20260905030405 | 16 | 312 | 37.0 | 41.8 | 0.00 | 0.00 | 0.00 | 69 | 1016.0 |
| 20260905030018 | 17 | 276 | 49.9 | 49.9 | 0.00 | 0.00 | 0.00 | 67 | 1016.0 |
| 20260905025806 | 17 | 288 | 38.6 | 38.6 | 0.00 | 0.00 | 0.00 | 67 | 1016.0 |
| 20260905025648 | 17 | 282 | 54.7 | 66.0 | 0.00 | 0.00 | 0.00 | 66 | 1016.0 |
| 20260905025409 | 17 | 342 | 29.0 | 30.6 | 0.00 | 0.00 | 0.00 | 67 | 1017.0 |
| 20260905025205 | 17 | 288 | 45.1 | 49.9 | 0.00 | 0.00 | 0.00 | 66 | 1017.0 |
| 20260905025010 | 17 | 294 | 69.2 | 74.0 | 0.00 | 0.00 | 0.00 | 65 | 1016.0 |
| 20260905024823 | 17 | 312 | 48.3 | 49.9 | 0.00 | 0.00 | 0.00 | 65 | 1016.0 |
| 20260905024606 | 17 | 305 | 45.1 | 49.9 | 0.00 | 0.00 | 0.00 | 68 | 1016.0 |
| 20260905024407 | 17 | 282 | 30.6 | 32.2 | 0.00 | 0.00 | 0.00 | 68 | 1016.0 |
| 20260905024207 | 17 | 304 | 29.0 | 30.6 | 0.00 | 0.00 | 0.00 | 69 | 1016.0 |
| 20260905024008 | 17 | 4 | 30.6 | 32.2 | 0.00 | 0.00 | 0.00 | 69 | 1016.0 |
| 20260905023804 | 17 | 312 | 33.8 | 35.4 | 0.00 | 0.00 | 0.00 | 69 | 1016.0 |
| 20260905023605 | 17 | 294 | 29.0 | 30.6 | 0.00 | 0.00 | 0.00 | 69 | 1016.0 |
| 20260905023207 | 17 | 300 | 14.5 | 14.5 | 0.00 | 0.00 | 0.00 | 69 | 1016.0 |
| 20260905023014 | 17 | 337 | 24.1 | 27.4 | 0.00 | 0.00 | 0.00 | 70 | 1016.0 |
| 20260905022805 | 16 | 264 | 30.6 | 32.2 | 0.00 | 0.00 | 0.00 | 70 | 1016.0 |
| 20260905022605 | 16 | 312 | 35.4 | 38.6 | 0.00 | 0.00 | 0.00 | 70 | 1016.0 |
| 20260905022405 | 16 | 300 | 25.7 | 29.0 | 0.00 | 0.00 | 0.00 | 70 | 1016.0 |
| 20260905022205 | 16 | 324 | 33.8 | 35.4 | 0.00 | 0.00 | 0.00 | 70 | 1016.0 |
| 20260905021807 | 17 | 297 | 12.9 | 12.9 | 0.00 | 0.00 | 0.00 | 70 | 1016.0 |
| 20260905021607 | 17 | 282 | 27.4 | 29.0 | 0.00 | 0.00 | 0.00 | 69 | 1016.0 |
| 20260905021406 | 17 | 269 | 41.8 | 41.8 | 0.00 | 0.00 | 0.00 | 69 | 1016.0 |
| 20260905021205 | 17 | 330 | 30.6 | 32.2 | 0.00 | 0.00 | 0.00 | 69 | 1016.0 |
| 20260905021011 | 17 | 312 | 32.2 | 35.4 | 0.00 | 0.00 | 0.00 | 69 | 1015.0 |
| 20260905020807 | 17 | 12 | 35.4 | 40.2 | 0.00 | 0.00 | 0.00 | 69 | 1015.0 |
| 20260905020607 | 17 | 337 | 12.9 | 12.9 | 0.00 | 0.00 | 0.00 | 69 | 1015.0 |
| 20260905020407 | 17 | 48 | 29.0 | 30.6 | 0.00 | 0.00 | 0.00 | 69 | 1016.0 |
| 20260905020207 | 17 | 279 | 29.0 | 30.6 | 0.00 | 0.00 | 0.00 | 69 | 1016.0 |
| 20260905020019 | 17 | 282 | 49.9 | 49.9 | 0.00 | 0.00 | 0.00 | 68 | 1015.0 |
| 20260905015807 | 17 | 294 | 38.6 | 41.8 | 0.00 | 0.00 | 0.00 | 69 | 1015.0 |
| 20260905015606 | 17 | 304 | 25.7 | 27.4 | 0.00 | 0.00 | 0.00 | 68 | 1015.0 |
| 20260905015405 | 17 | 12 | 30.6 | 32.2 | 0.00 | 0.00 | 0.00 | 68 | 1016.0 |
| 20260905015011 | 17 | 296 | 32.2 | 35.4 | 0.00 | 0.00 | 0.00 | 68 | 1016.0 |
| 20260905014805 | 17 | 280 | 46.7 | 48.3 | 0.00 | 0.00 | 0.00 | 68 | 1016.0 |
| 20260905014605 | 17 | 306 | 30.6 | 32.2 | 0.00 | 0.00 | 0.00 | 68 | 1016.0 |
| 20260905014407 | 17 | 241 | 27.4 | 30.6 | 0.00 | 0.00 | 0.00 | 68 | 1016.0 |
| 20260905014207 | 17 | 312 | 35.4 | 40.2 | 0.00 | 0.00 | 0.00 | 67 | 1016.0 |
| 20260905013806 | 17 | 342 | 32.2 | 35.4 | 0.00 | 0.00 | 0.00 | 67 | 1015.0 |
| 20260905013606 | 17 | 276 | 35.4 | 37.0 | 0.00 | 0.00 | 0.00 | 67 | 1015.0 |
| 20260905013205 | 17 | 318 | 35.4 | 40.2 | 0.00 | 0.00 | 0.00 | 66 | 1015.0 |
| 20260905013016 | 17 | 17 | 32.2 | 35.4 | 0.00 | 0.00 | 0.00 | 67 | 1015.0 |
| 20260905012806 | 18 | 3 | 33.8 | 35.4 | 0.00 | 0.00 | 0.00 | 66 | 1015.0 |
| 20260905012605 | 18 | 254 | 35.4 | 40.2 | 0.00 | 0.00 | 0.00 | 66 | 1015.0 |
| 20260905012407 | 18 | 297 | 38.6 | 41.8 | 0.00 | 0.00 | 0.00 | 66 | 1016.0 |
| 20260905012009 | 18 | 24 | 41.8 | 49.9 | 0.00 | 0.00 | 0.00 | 66 | 1015.0 |
| 20260905011806 | 18 | 252 | 35.4 | 37.0 | 0.00 | 0.00 | 0.00 | 66 | 1015.0 |
| 20260905011605 | 18 | 0 | 35.4 | 38.6 | 0.00 | 0.00 | 0.00 | 66 | 1015.0 |
| 20260905011406 | 18 | 4 | 32.2 | 35.4 | 0.00 | 0.00 | 0.00 | 66 | 1015.0 |
| 20260905011208 | 18 | 348 | 35.4 | 40.2 | 0.00 | 0.00 | 0.00 | 66 | 1015.0 |
| 20260905011011 | 18 | 338 | 53.1 | 61.2 | 0.00 | 0.00 | 0.00 | 66 | 1015.0 |
| 20260905010829 | 18 | 249 | 41.8 | 41.8 | 0.00 | 0.00 | 0.00 | 67 | 1015.0 |
| 20260905010606 | 18 | 0 | 48.3 | 51.5 | 0.00 | 0.00 | 0.00 | 67 | 1015.0 |
| 20260905010407 | 18 | 258 | 32.2 | 35.4 | 0.00 | 0.00 | 0.00 | 67 | 1015.0 |
| 20260905010207 | 19 | 280 | 35.4 | 38.6 | 0.00 | 0.00 | 0.00 | 67 | 1015.0 |
| 20260905005805 | 19 | 18 | 53.1 | 61.2 | 0.00 | 0.00 | 0.00 | 66 | 1015.0 |
| 20260905005606 | 19 | 294 | 38.6 | 41.8 | 0.00 | 0.00 | 0.00 | 66 | 1015.0 |
| 20260905005404 | 20 | 330 | 54.7 | 70.8 | 0.00 | 0.00 | 0.00 | 64 | 1015.0 |
| 20260905005207 | 20 | 336 | 88.5 | 98.2 | 0.00 | 0.00 | 0.00 | 63 | 1015.0 |
| 20260905005008 | 21 | 332 | 41.8 | 49.9 | 0.00 | 0.00 | 0.00 | 62 | 1014.0 |
| 20260905004606 | 21 | 300 | 49.9 | 51.5 | 0.00 | 0.00 | 0.00 | 59 | 1014.0 |
| 20260905004407 | 21 | 281 | 111.0 | 119.1 | 0.00 | 0.00 | 0.00 | 58 | 1014.0 |
| 20260905004205 | 21 | 293 | 30.6 | 32.2 | 0.00 | 0.00 | 0.00 | 58 | 1014.0 |
| 20260905004010 | 21 | 284 | 35.4 | 38.6 | 0.00 | 0.00 | 0.00 | 58 | 1013.0 |
| 20260905003807 | 20 | 229 | 12.9 | 12.9 | 0.00 | 0.00 | 0.00 | 58 | 1013.0 |
| 20260905003405 | 20 | 192 | 11.3 | 11.3 | 0.00 | 0.00 | 0.00 | 58 | 1014.0 |
| 20260905003205 | 20 | 212 | 12.9 | 12.9 | 0.00 | 0.00 | 0.00 | 59 | 1014.0 |
| 20260905003020 | 21 | 212 | 11.3 | 11.3 | 0.00 | 0.00 | 0.00 | 58 | 1013.0 |
| 20260905002806 | 21 | 231 | 25.7 | 27.4 | 0.00 | 0.00 | 0.00 | 58 | 1013.0 |
| 20260905002606 | 21 | 212 | 9.7 | 9.7 | 0.00 | 0.00 | 0.00 | 58 | 1013.0 |
| 20260905002407 | 21 | 212 | 22.5 | 22.5 | 0.00 | 0.00 | 0.00 | 57 | 1013.0 |
| 20260905002207 | 21 | 218 | 12.9 | 12.9 | 0.00 | 0.00 | 0.00 | 57 | 1013.0 |
| 20260905002010 | 21 | 225 | 12.9 | 12.9 | 0.00 | 0.00 | 0.00 | 57 | 1013.0 |
| 20260905001805 | 21 | 178 | 14.5 | 14.5 | 0.00 | 0.00 | 0.00 | 56 | 1013.0 |
| 20260905001606 | 21 | 216 | 14.5 | 14.5 | 0.00 | 0.00 | 0.00 | 57 | 1013.0 |
| 20260905001406 | 21 | 212 | 14.5 | 14.5 | 0.00 | 0.00 | 0.00 | 56 | 1013.0 |
| 20260905001214 | 21 | 216 | 14.5 | 14.5 | 0.00 | 0.00 | 0.00 | 56 | 1013.0 |
| 20260905001014 | 21 | 225 | 24.1 | 24.1 | 0.00 | 0.00 | 0.00 | 56 | 1013.0 |
| 20260905000814 | 21 | 196 | 25.7 | 27.4 | 0.00 | 0.00 | 0.00 | 55 | 1013.0 |
| 20260905000606 | 21 | 204 | 32.2 | 35.4 | 0.00 | 0.00 | 0.00 | 55 | 1013.0 |
| 20260905000406 | 21 | 216 | 22.5 | 22.5 | 0.00 | 0.00 | 0.00 | 55 | 1013.0 |
| 20260905000207 | 21 | 202 | 12.9 | 12.9 | 0.00 | 0.00 | 0.00 | 56 | 1013.0 |
| 20260905000025 | 21 | 228 | 29.0 | 30.6 | 0.00 | 0.00 | 0.00 | 56 | 1013.0 |
| 20260904235807 | 21 | 246 | 24.1 | 27.4 | 0.00 | 0.00 | 0.00 | 56 | 1013.0 |
| 20260904235606 | 21 | 240 | 12.9 | 12.9 | 0.00 | 0.00 | 0.00 | 56 | 1013.0 |
| 20260904235405 | 21 | 212 | 22.5 | 22.5 | 0.00 | 0.00 | 0.00 | 57 | 1013.0 |
| 20260904235205 | 21 | 192 | 14.5 | 14.5 | 0.00 | 0.00 | 0.00 | 57 | 1013.0 |
| 20260904235010 | 21 | 219 | 22.5 | 22.5 | 0.00 | 0.00 | 0.00 | 58 | 1013.0 |
| 20260904234805 | 20 | 218 | 11.3 | 11.3 | 0.00 | 0.00 | 0.00 | 58 | 1013.0 |
| 20260904234607 | 20 | 198 | 22.5 | 22.5 | 0.00 | 0.00 | 0.00 | 59 | 1013.0 |
| 20260904234405 | 20 | 204 | 14.5 | 14.5 | 0.00 | 0.00 | 0.00 | 59 | 1013.0 |
| 20260904234206 | 20 | 204 | 12.9 | 12.9 | 0.00 | 0.00 | 0.00 | 59 | 1013.0 |
| 20260904234013 | 20 | 204 | 12.9 | 12.9 | 0.00 | 0.00 | 0.00 | 59 | 1013.0 |
| 20260904233807 | 20 | 162 | 11.3 | 11.3 | 0.00 | 0.00 | 0.00 | 59 | 1013.0 |
| 20260904233606 | 21 | 167 | 11.3 | 11.3 | 0.00 | 0.00 | 0.00 | 59 | 1013.0 |
| 20260904233406 | 21 | 162 | 12.9 | 12.9 | 0.00 | 0.00 | 0.00 | 59 | 1013.0 |
| 20260904233205 | 21 | 162 | 11.3 | 11.3 | 0.00 | 0.00 | 0.00 | 58 | 1013.0 |
| 20260904233016 | 21 | 162 | 14.5 | 14.5 | 0.00 | 0.00 | 0.00 | 58 | 1013.0 |
| 20260904232806 | 21 | 162 | 12.9 | 12.9 | 0.00 | 0.00 | 0.00 | 58 | 1013.0 |
| 20260904232606 | 21 | 180 | 14.5 | 14.5 | 0.00 | 0.00 | 0.00 | 57 | 1013.0 |
| 20260904232205 | 21 | 196 | 11.3 | 11.3 | 0.00 | 0.00 | 0.00 | 58 | 1013.0 |
| 20260904232010 | 21 | 196 | 12.9 | 12.9 | 0.00 | 0.00 | 0.00 | 58 | 1013.0 |
| 20260904231807 | 21 | 198 | 22.5 | 22.5 | 0.00 | 0.00 | 0.00 | 58 | 1013.0 |
| 20260904231405 | 21 | 186 | 12.9 | 12.9 | 0.00 | 0.00 | 0.00 | 59 | 1013.0 |
| 20260904231205 | 21 | 186 | 11.3 | 11.3 | 0.00 | 0.00 | 0.00 | 58 | 1013.0 |
| 20260904231009 | 21 | 186 | 11.3 | 11.3 | 0.00 | 0.00 | 0.00 | 59 | 1013.0 |
| 20260904230805 | 21 | 186 | 9.7 | 9.7 | 0.00 | 0.00 | 0.00 | 59 | 1013.0 |
| 20260904230406 | 21 | 186 | 12.9 | 12.9 | 0.00 | 0.00 | 0.00 | 57 | 1013.0 |
| 20260904230206 | 21 | 222 | 14.5 | 14.5 | 0.00 | 0.00 | 0.00 | 57 | 1013.0 |
| 20260904230019 | 21 | 214 | 12.9 | 12.9 | 0.00 | 0.00 | 0.00 | 57 | 1013.0 |
| 20260904225805 | 21 | 216 | 12.9 | 12.9 | 0.00 | 0.00 | 0.00 | 57 | 1013.0 |
| 20260904225407 | 21 | 212 | 22.5 | 22.5 | 0.00 | 0.00 | 0.00 | 58 | 1013.0 |
| 20260904225206 | 20 | 229 | 14.5 | 14.5 | 0.00 | 0.00 | 0.00 | 59 | 1013.0 |
| 20260904225007 | 20 | 223 | 24.1 | 27.4 | 0.00 | 0.00 | 0.00 | 59 | 1013.0 |
| 20260904224607 | 20 | 219 | 12.9 | 12.9 | 0.00 | 0.00 | 0.00 | 59 | 1013.0 |
| 20260904224405 | 20 | 228 | 12.9 | 12.9 | 0.00 | 0.00 | 0.00 | 59 | 1013.0 |
| 20260904224207 | 20 | 228 | 9.7 | 9.7 | 0.00 | 0.00 | 0.00 | 59 | 1013.0 |
| 20260904224010 | 20 | 228 | 9.7 | 9.7 | 0.00 | 0.00 | 0.00 | 60 | 1013.0 |
| 20260904223806 | 20 | 228 | 9.7 | 9.7 | 0.00 | 0.00 | 0.00 | 60 | 1013.0 |
| 20260904223606 | 20 | 228 | 9.7 | 9.7 | 0.00 | 0.00 | 0.00 | 61 | 1013.0 |
| 20260904223407 | 20 | 228 | 9.7 | 9.7 | 0.00 | 0.00 | 0.00 | 60 | 1013.0 |
| 20260904223207 | 20 | 228 | 8.0 | 8.0 | 0.00 | 0.00 | 0.00 | 60 | 1013.0 |
| 20260904223014 | 20 | 228 | 11.3 | 11.3 | 0.00 | 0.00 | 0.00 | 61 | 1013.0 |
| 20260904222805 | 20 | 228 | 9.7 | 9.7 | 0.00 | 0.00 | 0.00 | 61 | 1013.0 |
| 20260904222607 | 20 | 228 | 9.7 | 9.7 | 0.00 | 0.00 | 0.00 | 61 | 1013.0 |
| 20260904222205 | 20 | 228 | 9.7 | 9.7 | 0.00 | 0.00 | 0.00 | 61 | 1013.0 |
| 20260904222010 | 20 | 228 | 9.7 | 9.7 | 0.00 | 0.00 | 0.00 | 61 | 1013.0 |
| 20260904221606 | 20 | 228 | 9.7 | 9.7 | 0.00 | 0.00 | 0.00 | 61 | 1013.0 |
| 20260904221206 | 20 | 228 | 9.7 | 9.7 | 0.00 | 0.00 | 0.00 | 61 | 1013.0 |
| 20260904220804 | 20 | 228 | 11.3 | 11.3 | 0.00 | 0.00 | 0.00 | 60 | 1013.0 |
| 20260904220406 | 20 | 228 | 8.0 | 8.0 | 0.00 | 0.00 | 0.00 | 60 | 1013.0 |
| 20260904220205 | 20 | 228 | 9.7 | 9.7 | 0.00 | 0.00 | 0.00 | 60 | 1013.0 |
| 20260904220025 | 20 | 228 | 8.0 | 8.0 | 0.00 | 0.00 | 0.00 | 60 | 1013.0 |
| 20260904215805 | 20 | 228 | 9.7 | 9.7 | 0.00 | 0.00 | 0.00 | 60 | 1013.0 |
| 20260904215605 | 20 | 228 | 12.9 | 12.9 | 0.00 | 0.00 | 0.00 | 60 | 1013.0 |
| 20260904215405 | 20 | 228 | 11.3 | 11.3 | 0.00 | 0.00 | 0.00 | 59 | 1013.0 |
| 20260904215207 | 20 | 228 | 11.3 | 11.3 | 0.00 | 0.00 | 0.00 | 59 | 1013.0 |
| 20260904215009 | 21 | 228 | 9.7 | 9.7 | 0.00 | 0.00 | 0.00 | 60 | 1013.0 |
| 20260904214606 | 21 | 228 | 9.7 | 9.7 | 0.00 | 0.00 | 0.00 | 58 | 1013.0 |
| 20260904214405 | 21 | 228 | 9.7 | 9.7 | 0.00 | 0.00 | 0.00 | 58 | 1013.0 |
| 20260904214205 | 21 | 228 | 11.3 | 11.3 | 0.00 | 0.00 | 0.00 | 58 | 1013.0 |
| 20260904214010 | 21 | 228 | 9.7 | 9.7 | 0.00 | 0.00 | 0.00 | 59 | 1012.0 |
| 20260904213806 | 21 | 228 | 9.7 | 9.7 | 0.00 | 0.00 | 0.00 | 58 | 1012.0 |
| 20260904213607 | 21 | 228 | 11.3 | 11.3 | 0.00 | 0.00 | 0.00 | 58 | 1012.0 |
| 20260904213206 | 21 | 228 | 8.0 | 8.0 | 0.00 | 0.00 | 0.00 | 58 | 1012.0 |
| 20260904212807 | 21 | 228 | 11.3 | 11.3 | 0.00 | 0.00 | 0.00 | 57 | 1013.0 |
| 20260904212606 | 21 | 228 | 11.3 | 11.3 | 0.00 | 0.00 | 0.00 | 57 | 1013.0 |
| 20260904212205 | 21 | 228 | 12.9 | 12.9 | 0.00 | 0.00 | 0.00 | 57 | 1013.0 |
| 20260904212008 | 21 | 228 | 14.5 | 14.5 | 0.00 | 0.00 | 0.00 | 56 | 1013.0 |
| 20260904211806 | 21 | 224 | 11.3 | 11.3 | 0.00 | 0.00 | 0.00 | 56 | 1013.0 |
| 20260904211606 | 21 | 224 | 11.3 | 11.3 | 0.00 | 0.00 | 0.00 | 56 | 1013.0 |
| 20260904211405 | 21 | 225 | 14.5 | 14.5 | 0.00 | 0.00 | 0.00 | 55 | 1013.0 |
| 20260904211206 | 21 | 229 | 9.7 | 9.7 | 0.00 | 0.00 | 0.00 | 56 | 1013.0 |
| 20260904211008 | 21 | 192 | 11.3 | 11.3 | 0.00 | 0.00 | 0.00 | 56 | 1013.0 |
| 20260904210805 | 21 | 228 | 11.3 | 11.3 | 0.00 | 0.00 | 0.00 | 56 | 1013.0 |
| 20260904210605 | 21 | 216 | 14.5 | 14.5 | 0.00 | 0.00 | 0.00 | 56 | 1013.0 |
| 20260904210405 | 21 | 216 | 14.5 | 14.5 | 0.00 | 0.00 | 0.00 | 56 | 1013.0 |
| 20260904210205 | 21 | 216 | 12.9 | 12.9 | 0.00 | 0.00 | 0.00 | 57 | 1013.0 |
| 20260904210016 | 21 | 217 | 12.9 | 12.9 | 0.00 | 0.00 | 0.00 | 57 | 1012.0 |
| 20260904205805 | 21 | 225 | 12.9 | 12.9 | 0.00 | 0.00 | 0.00 | 57 | 1012.0 |
| 20260904205605 | 21 | 225 | 14.5 | 14.5 | 0.00 | 0.00 | 0.00 | 58 | 1012.0 |
| 20260904205407 | 21 | 223 | 12.9 | 12.9 | 0.00 | 0.00 | 0.00 | 57 | 1013.0 |
| 20260904205206 | 21 | 223 | 12.9 | 12.9 | 0.00 | 0.00 | 0.00 | 58 | 1013.0 |
| 20260904205008 | 21 | 223 | 14.5 | 14.5 | 0.00 | 0.00 | 0.00 | 58 | 1013.0 |
| 20260904204806 | 21 | 184 | 12.9 | 12.9 | 0.00 | 0.00 | 0.00 | 57 | 1013.0 |
| 20260904204606 | 21 | 180 | 12.9 | 12.9 | 0.00 | 0.00 | 0.00 | 57 | 1013.0 |
| 20260904204404 | 20 | 162 | 12.9 | 12.9 | 0.00 | 0.00 | 0.00 | 57 | 1013.0 |
| 20260904204205 | 20 | 192 | 12.9 | 12.9 | 0.00 | 0.00 | 0.00 | 57 | 1013.0 |
| 20260904204008 | 20 | 180 | 12.9 | 12.9 | 0.00 | 0.00 | 0.00 | 58 | 1013.0 |
| 20260904203804 | 20 | 180 | 12.9 | 12.9 | 0.00 | 0.00 | 0.00 | 58 | 1013.0 |
| 20260904203605 | 20 | 180 | 12.9 | 12.9 | 0.00 | 0.00 | 0.00 | 59 | 1013.0 |
| 20260904203405 | 20 | 180 | 11.3 | 11.3 | 0.00 | 0.00 | 0.00 | 58 | 1013.0 |
| 20260904203207 | 20 | 180 | 12.9 | 12.9 | 0.00 | 0.00 | 0.00 | 58 | 1013.0 |
| 20260904203012 | 20 | 180 | 12.9 | 12.9 | 0.00 | 0.00 | 0.00 | 58 | 1013.0 |
| 20260904202807 | 20 | 180 | 12.9 | 12.9 | 0.00 | 0.00 | 0.00 | 58 | 1013.0 |
| 20260904202606 | 20 | 180 | 9.7 | 9.7 | 0.00 | 0.00 | 0.00 | 58 | 1013.0 |
| 20260904202405 | 20 | 180 | 11.3 | 11.3 | 0.00 | 0.00 | 0.00 | 58 | 1013.0 |
| 20260904202008 | 20 | 180 | 12.9 | 12.9 | 0.00 | 0.00 | 0.00 | 58 | 1013.0 |
| 20260904201805 | 20 | 180 | 12.9 | 12.9 | 0.00 | 0.00 | 0.00 | 58 | 1013.0 |
| 20260904201607 | 20 | 180 | 11.3 | 11.3 | 0.00 | 0.00 | 0.00 | 58 | 1013.0 |
| 20260904201405 | 20 | 180 | 9.7 | 9.7 | 0.00 | 0.00 | 0.00 | 58 | 1013.0 |
| 20260904201011 | 20 | 180 | 9.7 | 9.7 | 0.00 | 0.00 | 0.00 | 58 | 1013.0 |
| 20260904200805 | 20 | 180 | 8.0 | 8.0 | 0.00 | 0.00 | 0.00 | 58 | 1013.0 |
| 20260904200606 | 21 | 180 | 8.0 | 8.0 | 0.00 | 0.00 | 0.00 | 57 | 1013.0 |
| 20260904200406 | 21 | 180 | 8.0 | 8.0 | 0.00 | 0.00 | 0.00 | 57 | 1013.0 |
| 20260904200205 | 21 | 180 | 8.0 | 8.0 | 0.00 | 0.00 | 0.00 | 57 | 1013.0 |
| 20260904200018 | 21 | 180 | 8.0 | 8.0 | 0.00 | 0.00 | 0.00 | 56 | 1013.0 |
| 20260904195806 | 21 | 180 | 8.0 | 8.0 | 0.00 | 0.00 | 0.00 | 56 | 1013.0 |